sensor_id;sensor_type;location;lat;lon;timestamp;P1;durP1;ratioP1;P2;durP2;ratioP2
69569;SDS011;56781;42.292;23.146;2022-09-30T00:01:51;9.90;;;3.72;;
69569;SDS011;56781;42.292;23.146;2022-09-30T00:04:22;11.38;;;3.45;;
69569;SDS011;56781;42.292;23.146;2022-09-30T00:06:52;6.22;;;3.33;;
69569;SDS011;56781;42.292;23.146;2022-09-30T00:09:19;7.03;;;3.30;;
69569;SDS011;56781;42.292;23.146;2022-09-30T00:11:47;8.30;;;3.35;;
69569;SDS011;56781;42.292;23.146;2022-09-30T00:14:15;5.55;;;3.00;;
69569;SDS011;56781;42.292;23.146;2022-09-30T00:16:46;8.90;;;3.20;;
69569;SDS011;56781;42.292;23.146;2022-09-30T00:19:14;7.53;;;2.58;;
69569;SDS011;56781;42.292;23.146;2022-09-30T00:21:45;6.07;;;2.80;;
69569;SDS011;56781;42.292;23.146;2022-09-30T00:24:15;7.00;;;2.75;;
69569;SDS011;56781;42.292;23.146;2022-09-30T00:26:46;12.35;;;3.30;;
69569;SDS011;56781;42.292;23.146;2022-09-30T00:29:14;7.07;;;3.00;;
69569;SDS011;56781;42.292;23.146;2022-09-30T00:31:43;7.32;;;2.55;;
69569;SDS011;56781;42.292;23.146;2022-09-30T00:34:19;6.20;;;2.75;;
69569;SDS011;56781;42.292;23.146;2022-09-30T00:36:48;9.52;;;3.25;;
69569;SDS011;56781;42.292;23.146;2022-09-30T00:39:28;6.22;;;3.10;;
69569;SDS011;56781;42.292;23.146;2022-09-30T00:41:58;5.87;;;3.03;;
69569;SDS011;56781;42.292;23.146;2022-09-30T00:53:35;7.28;;;2.95;;
69569;SDS011;56781;42.292;23.146;2022-09-30T00:56:12;6.50;;;2.93;;
69569;SDS011;56781;42.292;23.146;2022-09-30T00:58:55;16.08;;;2.75;;
69569;SDS011;56781;42.292;23.146;2022-09-30T01:01:29;19.70;;;3.28;;
69569;SDS011;56781;42.292;23.146;2022-09-30T01:04:05;6.60;;;2.95;;
69569;SDS011;56781;42.292;23.146;2022-09-30T01:06:47;6.15;;;3.10;;
69569;SDS011;56781;42.292;23.146;2022-09-30T01:09:38;11.33;;;4.30;;
69569;SDS011;56781;42.292;23.146;2022-09-30T01:12:23;9.45;;;4.75;;
69569;SDS011;56781;42.292;23.146;2022-09-30T01:15:01;8.77;;;4.53;;
69569;SDS011;56781;42.292;23.146;2022-09-30T01:18:04;10.32;;;4.57;;
69569;SDS011;56781;42.292;23.146;2022-09-30T01:21:27;12.15;;;5.15;;
69569;SDS011;56781;42.292;23.146;2022-09-30T01:26:47;15.10;;;6.05;;
69569;SDS011;56781;42.292;23.146;2022-09-30T01:35:17;11.40;;;4.90;;
69569;SDS011;56781;42.292;23.146;2022-09-30T01:43:46;10.23;;;4.25;;
69569;SDS011;56781;42.292;23.146;2022-09-30T01:46:26;9.77;;;4.55;;
69569;SDS011;56781;42.292;23.146;2022-09-30T01:49:16;8.40;;;3.72;;
69569;SDS011;56781;42.292;23.146;2022-09-30T02:01:10;7.22;;;3.83;;
69569;SDS011;56781;42.292;23.146;2022-09-30T02:03:58;16.42;;;3.83;;
69569;SDS011;56781;42.292;23.146;2022-09-30T02:06:43;23.53;;;4.03;;
69569;SDS011;56781;42.292;23.146;2022-09-30T02:09:31;10.85;;;4.82;;
69569;SDS011;56781;42.292;23.146;2022-09-30T02:12:19;14.65;;;5.07;;
69569;SDS011;56781;42.292;23.146;2022-09-30T02:14:54;13.40;;;5.65;;
69569;SDS011;56781;42.292;23.146;2022-09-30T02:17:46;13.60;;;6.05;;
69569;SDS011;56781;42.292;23.146;2022-09-30T02:23:05;8.77;;;4.63;;
69569;SDS011;56781;42.292;23.146;2022-09-30T02:25:54;8.60;;;4.15;;
69569;SDS011;56781;42.292;23.146;2022-09-30T02:28:37;25.92;;;3.90;;
69569;SDS011;56781;42.292;23.146;2022-09-30T02:31:11;17.00;;;3.85;;
69569;SDS011;56781;42.292;23.146;2022-09-30T02:33:55;27.90;;;3.93;;
69569;SDS011;56781;42.292;23.146;2022-09-30T02:37:04;21.10;;;3.45;;
69569;SDS011;56781;42.292;23.146;2022-09-30T02:39:40;15.75;;;3.55;;
69569;SDS011;56781;42.292;23.146;2022-09-30T02:42:22;23.38;;;3.60;;
69569;SDS011;56781;42.292;23.146;2022-09-30T02:45:25;14.90;;;3.70;;
69569;SDS011;56781;42.292;23.146;2022-09-30T02:48:05;20.07;;;4.40;;
69569;SDS011;56781;42.292;23.146;2022-09-30T02:51:08;18.95;;;3.88;;
69569;SDS011;56781;42.292;23.146;2022-09-30T02:59:57;26.95;;;4.38;;
69569;SDS011;56781;42.292;23.146;2022-09-30T03:02:28;27.60;;;5.13;;
69569;SDS011;56781;42.292;23.146;2022-09-30T03:04:57;39.70;;;7.07;;
69569;SDS011;56781;42.292;23.146;2022-09-30T03:07:23;19.65;;;4.88;;
69569;SDS011;56781;42.292;23.146;2022-09-30T03:10:21;23.88;;;4.70;;
69569;SDS011;56781;42.292;23.146;2022-09-30T03:21:05;33.88;;;7.00;;
69569;SDS011;56781;42.292;23.146;2022-09-30T03:32:24;57.10;;;7.35;;
69569;SDS011;56781;42.292;23.146;2022-09-30T03:43:30;93.60;;;7.00;;
69569;SDS011;56781;42.292;23.146;2022-09-30T03:46:02;46.42;;;6.95;;
69569;SDS011;56781;42.292;23.146;2022-09-30T03:48:37;78.80;;;6.82;;
69569;SDS011;56781;42.292;23.146;2022-09-30T03:51:10;42.70;;;6.43;;
69569;SDS011;56781;42.292;23.146;2022-09-30T03:53:39;44.67;;;6.60;;
69569;SDS011;56781;42.292;23.146;2022-09-30T03:56:07;42.63;;;5.93;;
69569;SDS011;56781;42.292;23.146;2022-09-30T03:58:34;37.25;;;5.15;;
69569;SDS011;56781;42.292;23.146;2022-09-30T04:01:16;33.00;;;5.20;;
69569;SDS011;56781;42.292;23.146;2022-09-30T04:03:50;31.65;;;5.25;;
69569;SDS011;56781;42.292;23.146;2022-09-30T04:06:19;25.60;;;5.53;;
69569;SDS011;56781;42.292;23.146;2022-09-30T04:09:08;24.40;;;5.10;;
69569;SDS011;56781;42.292;23.146;2022-09-30T04:11:35;29.65;;;5.57;;
69569;SDS011;56781;42.292;23.146;2022-09-30T04:14:03;17.60;;;5.50;;
69569;SDS011;56781;42.292;23.146;2022-09-30T04:16:32;13.57;;;5.72;;
69569;SDS011;56781;42.292;23.146;2022-09-30T04:19:02;13.07;;;5.72;;
69569;SDS011;56781;42.292;23.146;2022-09-30T04:21:29;12.30;;;5.93;;
69569;SDS011;56781;42.292;23.146;2022-09-30T04:23:56;13.43;;;5.80;;
69569;SDS011;56781;42.292;23.146;2022-09-30T04:26:23;17.75;;;6.05;;
69569;SDS011;56781;42.292;23.146;2022-09-30T04:28:50;17.23;;;6.82;;
69569;SDS011;56781;42.292;23.146;2022-09-30T04:31:20;15.65;;;7.13;;
69569;SDS011;56781;42.292;23.146;2022-09-30T04:34:07;14.53;;;6.40;;
69569;SDS011;56781;42.292;23.146;2022-09-30T04:36:41;16.63;;;6.57;;
69569;SDS011;56781;42.292;23.146;2022-09-30T04:39:10;16.23;;;6.47;;
69569;SDS011;56781;42.292;23.146;2022-09-30T04:41:37;15.05;;;6.68;;
69569;SDS011;56781;42.292;23.146;2022-09-30T04:44:13;15.63;;;6.68;;
69569;SDS011;56781;42.292;23.146;2022-09-30T04:46:40;17.17;;;7.53;;
69569;SDS011;56781;42.292;23.146;2022-09-30T04:49:17;17.95;;;6.97;;
69569;SDS011;56781;42.292;23.146;2022-09-30T04:51:48;17.40;;;7.80;;
69569;SDS011;56781;42.292;23.146;2022-09-30T04:54:15;17.80;;;7.18;;
69569;SDS011;56781;42.292;23.146;2022-09-30T04:56:45;17.15;;;7.80;;
69569;SDS011;56781;42.292;23.146;2022-09-30T04:59:16;21.17;;;8.73;;
69569;SDS011;56781;42.292;23.146;2022-09-30T05:01:53;20.50;;;8.95;;
69569;SDS011;56781;42.292;23.146;2022-09-30T05:04:28;22.50;;;8.93;;
69569;SDS011;56781;42.292;23.146;2022-09-30T05:07:00;22.23;;;9.07;;
69569;SDS011;56781;42.292;23.146;2022-09-30T05:09:29;25.08;;;10.65;;
69569;SDS011;56781;42.292;23.146;2022-09-30T05:11:56;24.13;;;8.13;;
69569;SDS011;56781;42.292;23.146;2022-09-30T05:14:26;21.60;;;8.02;;
69569;SDS011;56781;42.292;23.146;2022-09-30T05:16:53;28.25;;;8.98;;
69569;SDS011;56781;42.292;23.146;2022-09-30T05:19:19;26.05;;;8.88;;
69569;SDS011;56781;42.292;23.146;2022-09-30T05:21:49;24.17;;;9.00;;
69569;SDS011;56781;42.292;23.146;2022-09-30T05:24:18;23.80;;;8.27;;
69569;SDS011;56781;42.292;23.146;2022-09-30T05:26:56;28.55;;;9.68;;
69569;SDS011;56781;42.292;23.146;2022-09-30T05:29:23;26.92;;;9.27;;
69569;SDS011;56781;42.292;23.146;2022-09-30T05:31:54;25.73;;;9.10;;
69569;SDS011;56781;42.292;23.146;2022-09-30T05:34:21;26.50;;;8.60;;
69569;SDS011;56781;42.292;23.146;2022-09-30T05:36:51;23.77;;;8.90;;
69569;SDS011;56781;42.292;23.146;2022-09-30T05:39:41;27.35;;;8.38;;
69569;SDS011;56781;42.292;23.146;2022-09-30T05:42:19;25.70;;;9.35;;
69569;SDS011;56781;42.292;23.146;2022-09-30T05:44:46;25.42;;;9.95;;
69569;SDS011;56781;42.292;23.146;2022-09-30T05:47:15;30.27;;;10.40;;
69569;SDS011;56781;42.292;23.146;2022-09-30T05:49:48;31.10;;;11.50;;
69569;SDS011;56781;42.292;23.146;2022-09-30T05:52:21;34.42;;;11.13;;
69569;SDS011;56781;42.292;23.146;2022-09-30T05:54:49;27.45;;;10.23;;
69569;SDS011;56781;42.292;23.146;2022-09-30T05:57:16;31.65;;;10.88;;
69569;SDS011;56781;42.292;23.146;2022-09-30T05:59:43;24.23;;;9.50;;
69569;SDS011;56781;42.292;23.146;2022-09-30T06:02:10;25.57;;;9.93;;
69569;SDS011;56781;42.292;23.146;2022-09-30T06:04:37;26.58;;;9.93;;
69569;SDS011;56781;42.292;23.146;2022-09-30T06:07:04;24.02;;;9.85;;
69569;SDS011;56781;42.292;23.146;2022-09-30T06:09:35;20.00;;;9.75;;
69569;SDS011;56781;42.292;23.146;2022-09-30T06:12:02;23.60;;;10.15;;
69569;SDS011;56781;42.292;23.146;2022-09-30T06:14:31;21.83;;;9.43;;
69569;SDS011;56781;42.292;23.146;2022-09-30T06:16:58;20.80;;;9.10;;
69569;SDS011;56781;42.292;23.146;2022-09-30T06:19:29;19.67;;;8.90;;
69569;SDS011;56781;42.292;23.146;2022-09-30T06:21:56;21.50;;;8.55;;
69569;SDS011;56781;42.292;23.146;2022-09-30T06:24:24;16.80;;;7.40;;
69569;SDS011;56781;42.292;23.146;2022-09-30T06:26:52;17.60;;;7.40;;
69569;SDS011;56781;42.292;23.146;2022-09-30T06:29:20;14.73;;;7.28;;
69569;SDS011;56781;42.292;23.146;2022-09-30T06:31:47;13.15;;;7.25;;
69569;SDS011;56781;42.292;23.146;2022-09-30T06:34:14;15.57;;;7.15;;
69569;SDS011;56781;42.292;23.146;2022-09-30T06:36:41;17.02;;;7.68;;
69569;SDS011;56781;42.292;23.146;2022-09-30T06:39:08;15.17;;;7.30;;
69569;SDS011;56781;42.292;23.146;2022-09-30T06:41:39;16.23;;;7.35;;
69569;SDS011;56781;42.292;23.146;2022-09-30T06:44:13;16.45;;;7.88;;
69569;SDS011;56781;42.292;23.146;2022-09-30T06:46:39;16.52;;;7.53;;
69569;SDS011;56781;42.292;23.146;2022-09-30T06:49:19;15.60;;;9.07;;
69569;SDS011;56781;42.292;23.146;2022-09-30T06:51:46;16.35;;;7.93;;
69569;SDS011;56781;42.292;23.146;2022-09-30T06:54:22;23.63;;;9.48;;
69569;SDS011;56781;42.292;23.146;2022-09-30T06:56:49;23.80;;;9.35;;
69569;SDS011;56781;42.292;23.146;2022-09-30T06:59:20;17.55;;;8.55;;
69569;SDS011;56781;42.292;23.146;2022-09-30T07:01:48;19.33;;;9.10;;
69569;SDS011;56781;42.292;23.146;2022-09-30T07:04:15;21.25;;;9.35;;
69569;SDS011;56781;42.292;23.146;2022-09-30T07:06:48;21.02;;;9.98;;
69569;SDS011;56781;42.292;23.146;2022-09-30T07:09:15;22.63;;;9.95;;
69569;SDS011;56781;42.292;23.146;2022-09-30T07:11:43;28.73;;;11.52;;
69569;SDS011;56781;42.292;23.146;2022-09-30T07:14:10;26.55;;;11.40;;
69569;SDS011;56781;42.292;23.146;2022-09-30T07:16:38;23.65;;;11.02;;
69569;SDS011;56781;42.292;23.146;2022-09-30T07:19:05;22.05;;;9.93;;
69569;SDS011;56781;42.292;23.146;2022-09-30T07:21:34;28.38;;;11.43;;
69569;SDS011;56781;42.292;23.146;2022-09-30T07:24:01;20.17;;;9.40;;
69569;SDS011;56781;42.292;23.146;2022-09-30T07:26:28;22.83;;;11.00;;
69569;SDS011;56781;42.292;23.146;2022-09-30T07:28:56;25.75;;;10.50;;
69569;SDS011;56781;42.292;23.146;2022-09-30T07:31:23;20.75;;;10.43;;
69569;SDS011;56781;42.292;23.146;2022-09-30T07:34:01;21.35;;;9.63;;
69569;SDS011;56781;42.292;23.146;2022-09-30T07:36:34;22.58;;;9.05;;
69569;SDS011;56781;42.292;23.146;2022-09-30T07:39:04;23.63;;;8.13;;
69569;SDS011;56781;42.292;23.146;2022-09-30T07:41:33;13.07;;;7.80;;
69569;SDS011;56781;42.292;23.146;2022-09-30T07:44:01;15.27;;;8.38;;
69569;SDS011;56781;42.292;23.146;2022-09-30T07:46:32;15.43;;;8.23;;
69569;SDS011;56781;42.292;23.146;2022-09-30T07:49:01;13.93;;;7.85;;
69569;SDS011;56781;42.292;23.146;2022-09-30T07:51:35;12.75;;;7.65;;
69569;SDS011;56781;42.292;23.146;2022-09-30T07:54:05;14.65;;;8.13;;
69569;SDS011;56781;42.292;23.146;2022-09-30T07:56:34;14.95;;;7.85;;
69569;SDS011;56781;42.292;23.146;2022-09-30T07:59:25;14.65;;;7.93;;
69569;SDS011;56781;42.292;23.146;2022-09-30T08:01:56;14.02;;;7.60;;
69569;SDS011;56781;42.292;23.146;2022-09-30T08:04:23;13.45;;;7.82;;
69569;SDS011;56781;42.292;23.146;2022-09-30T08:06:53;13.80;;;7.95;;
69569;SDS011;56781;42.292;23.146;2022-09-30T08:09:26;15.18;;;8.25;;
69569;SDS011;56781;42.292;23.146;2022-09-30T08:11:54;13.27;;;7.80;;
69569;SDS011;56781;42.292;23.146;2022-09-30T08:14:22;15.02;;;8.23;;
69569;SDS011;56781;42.292;23.146;2022-09-30T08:16:51;13.98;;;8.27;;
69569;SDS011;56781;42.292;23.146;2022-09-30T08:19:20;14.43;;;8.35;;
69569;SDS011;56781;42.292;23.146;2022-09-30T08:21:48;14.57;;;8.00;;
69569;SDS011;56781;42.292;23.146;2022-09-30T08:24:16;12.73;;;7.80;;
69569;SDS011;56781;42.292;23.146;2022-09-30T08:26:43;12.98;;;8.00;;
69569;SDS011;56781;42.292;23.146;2022-09-30T08:29:10;13.50;;;8.05;;
69569;SDS011;56781;42.292;23.146;2022-09-30T08:31:46;12.38;;;6.95;;
69569;SDS011;56781;42.292;23.146;2022-09-30T08:34:13;12.75;;;7.65;;
69569;SDS011;56781;42.292;23.146;2022-09-30T08:36:40;12.93;;;7.50;;
69569;SDS011;56781;42.292;23.146;2022-09-30T08:39:14;11.90;;;7.10;;
69569;SDS011;56781;42.292;23.146;2022-09-30T08:48:25;12.98;;;7.35;;
69569;SDS011;56781;42.292;23.146;2022-09-30T08:53:37;12.23;;;7.25;;
69569;SDS011;56781;42.292;23.146;2022-09-30T08:56:07;12.63;;;7.35;;
69569;SDS011;56781;42.292;23.146;2022-09-30T08:58:46;15.10;;;7.60;;
69569;SDS011;56781;42.292;23.146;2022-09-30T09:03:57;13.52;;;7.22;;
69569;SDS011;56781;42.292;23.146;2022-09-30T09:06:45;12.32;;;7.40;;
69569;SDS011;56781;42.292;23.146;2022-09-30T09:20:55;16.15;;;7.38;;
69569;SDS011;56781;42.292;23.146;2022-09-30T09:23:25;12.60;;;7.97;;
69569;SDS011;56781;42.292;23.146;2022-09-30T09:25:54;13.10;;;7.40;;
69569;SDS011;56781;42.292;23.146;2022-09-30T09:28:27;14.07;;;7.35;;
69569;SDS011;56781;42.292;23.146;2022-09-30T09:31:02;13.52;;;7.15;;
69569;SDS011;56781;42.292;23.146;2022-09-30T09:33:31;14.40;;;7.25;;
69569;SDS011;56781;42.292;23.146;2022-09-30T09:36:23;10.93;;;6.93;;
69569;SDS011;56781;42.292;23.146;2022-09-30T09:39:08;10.55;;;6.57;;
69569;SDS011;56781;42.292;23.146;2022-09-30T09:41:57;12.07;;;6.90;;
69569;SDS011;56781;42.292;23.146;2022-09-30T09:47:52;10.50;;;6.68;;
69569;SDS011;56781;42.292;23.146;2022-09-30T09:50:22;14.88;;;7.03;;
69569;SDS011;56781;42.292;23.146;2022-09-30T09:53:40;11.13;;;6.47;;
69569;SDS011;56781;42.292;23.146;2022-09-30T09:56:04;11.50;;;6.53;;
69569;SDS011;56781;42.292;23.146;2022-09-30T10:01:39;12.02;;;5.93;;
69569;SDS011;56781;42.292;23.146;2022-09-30T10:04:11;10.63;;;5.75;;
69569;SDS011;56781;42.292;23.146;2022-09-30T10:06:48;7.50;;;4.57;;
69569;SDS011;56781;42.292;23.146;2022-09-30T10:14:39;6.85;;;3.88;;
69569;SDS011;56781;42.292;23.146;2022-09-30T10:17:19;6.80;;;3.60;;
69569;SDS011;56781;42.292;23.146;2022-09-30T10:20:16;5.88;;;3.13;;
69569;SDS011;56781;42.292;23.146;2022-09-30T10:22:48;5.75;;;3.22;;
69569;SDS011;56781;42.292;23.146;2022-09-30T10:25:17;4.72;;;2.53;;
69569;SDS011;56781;42.292;23.146;2022-09-30T10:27:52;6.03;;;2.72;;
69569;SDS011;56781;42.292;23.146;2022-09-30T10:30:38;4.97;;;2.63;;
69569;SDS011;56781;42.292;23.146;2022-09-30T10:33:14;4.00;;;2.40;;
69569;SDS011;56781;42.292;23.146;2022-09-30T10:35:53;5.45;;;2.50;;
69569;SDS011;56781;42.292;23.146;2022-09-30T10:38:23;5.28;;;2.50;;
69569;SDS011;56781;42.292;23.146;2022-09-30T10:40:54;4.45;;;2.40;;
69569;SDS011;56781;42.292;23.146;2022-09-30T10:43:29;6.32;;;2.35;;
69569;SDS011;56781;42.292;23.146;2022-09-30T10:46:00;5.85;;;2.85;;
69569;SDS011;56781;42.292;23.146;2022-09-30T10:48:49;4.32;;;1.98;;
69569;SDS011;56781;42.292;23.146;2022-09-30T10:51:26;6.53;;;2.30;;
69569;SDS011;56781;42.292;23.146;2022-09-30T10:54:01;4.00;;;2.50;;
69569;SDS011;56781;42.292;23.146;2022-09-30T10:56:33;4.15;;;2.10;;
69569;SDS011;56781;42.292;23.146;2022-09-30T10:59:26;5.40;;;2.50;;
69569;SDS011;56781;42.292;23.146;2022-09-30T11:05:12;7.07;;;2.58;;
69569;SDS011;56781;42.292;23.146;2022-09-30T11:18:37;5.85;;;2.55;;
69569;SDS011;56781;42.292;23.146;2022-09-30T11:38:40;4.05;;;2.33;;
69569;SDS011;56781;42.292;23.146;2022-09-30T11:41:49;4.05;;;2.30;;
69569;SDS011;56781;42.292;23.146;2022-09-30T11:44:31;8.50;;;2.50;;
69569;SDS011;56781;42.292;23.146;2022-09-30T11:49:42;3.40;;;2.28;;
69569;SDS011;56781;42.292;23.146;2022-09-30T11:58:19;5.05;;;2.40;;
69569;SDS011;56781;42.292;23.146;2022-09-30T12:04:04;4.55;;;1.90;;
69569;SDS011;56781;42.292;23.146;2022-09-30T12:06:44;4.80;;;2.22;;
69569;SDS011;56781;42.292;23.146;2022-09-30T12:09:31;3.78;;;2.10;;
69569;SDS011;56781;42.292;23.146;2022-09-30T12:12:06;4.72;;;2.40;;
69569;SDS011;56781;42.292;23.146;2022-09-30T12:14:46;4.55;;;2.10;;
69569;SDS011;56781;42.292;23.146;2022-09-30T12:17:40;3.38;;;1.88;;
69569;SDS011;56781;42.292;23.146;2022-09-30T12:20:17;4.05;;;1.90;;
69569;SDS011;56781;42.292;23.146;2022-09-30T12:26:03;5.35;;;1.98;;
69569;SDS011;56781;42.292;23.146;2022-09-30T12:34:50;4.35;;;2.03;;
69569;SDS011;56781;42.292;23.146;2022-09-30T12:49:18;5.32;;;2.50;;
69569;SDS011;56781;42.292;23.146;2022-09-30T12:52:02;4.53;;;2.10;;
69569;SDS011;56781;42.292;23.146;2022-09-30T12:54:39;4.13;;;2.45;;
69569;SDS011;56781;42.292;23.146;2022-09-30T12:57:16;5.82;;;2.38;;
69569;SDS011;56781;42.292;23.146;2022-09-30T13:00:01;5.88;;;2.33;;
69569;SDS011;56781;42.292;23.146;2022-09-30T13:02:39;4.72;;;2.00;;
69569;SDS011;56781;42.292;23.146;2022-09-30T13:08:21;3.97;;;2.10;;
69569;SDS011;56781;42.292;23.146;2022-09-30T13:10:58;6.03;;;1.88;;
69569;SDS011;56781;42.292;23.146;2022-09-30T13:13:30;5.43;;;2.03;;
69569;SDS011;56781;42.292;23.146;2022-09-30T13:16:04;3.85;;;1.95;;
69569;SDS011;56781;42.292;23.146;2022-09-30T13:21:15;4.93;;;1.50;;
69569;SDS011;56781;42.292;23.146;2022-09-30T13:23:49;3.08;;;1.42;;
69569;SDS011;56781;42.292;23.146;2022-09-30T13:28:51;4.47;;;1.90;;
69569;SDS011;56781;42.292;23.146;2022-09-30T13:37:31;4.00;;;1.70;;
69569;SDS011;56781;42.292;23.146;2022-09-30T13:40:01;4.78;;;1.88;;
69569;SDS011;56781;42.292;23.146;2022-09-30T13:42:33;3.22;;;1.80;;
69569;SDS011;56781;42.292;23.146;2022-09-30T13:45:10;4.75;;;2.00;;
69569;SDS011;56781;42.292;23.146;2022-09-30T13:50:38;5.50;;;1.95;;
69569;SDS011;56781;42.292;23.146;2022-09-30T13:53:14;3.00;;;1.35;;
69569;SDS011;56781;42.292;23.146;2022-09-30T13:55:47;4.22;;;1.58;;
69569;SDS011;56781;42.292;23.146;2022-09-30T14:01:27;4.63;;;2.00;;
69569;SDS011;56781;42.292;23.146;2022-09-30T14:07:09;4.63;;;1.77;;
69569;SDS011;56781;42.292;23.146;2022-09-30T14:12:48;4.10;;;1.70;;
69569;SDS011;56781;42.292;23.146;2022-09-30T14:18:32;3.50;;;1.83;;
69569;SDS011;56781;42.292;23.146;2022-09-30T14:23:58;6.80;;;2.22;;
69569;SDS011;56781;42.292;23.146;2022-09-30T14:29:12;6.22;;;2.03;;
69569;SDS011;56781;42.292;23.146;2022-09-30T14:31:59;4.03;;;2.03;;
69569;SDS011;56781;42.292;23.146;2022-09-30T14:34:29;3.90;;;2.10;;
69569;SDS011;56781;42.292;23.146;2022-09-30T14:37:20;6.05;;;2.17;;
69569;SDS011;56781;42.292;23.146;2022-09-30T14:39:54;4.63;;;1.98;;
69569;SDS011;56781;42.292;23.146;2022-09-30T14:42:24;4.38;;;2.40;;
69569;SDS011;56781;42.292;23.146;2022-09-30T14:44:57;5.53;;;1.95;;
69569;SDS011;56781;42.292;23.146;2022-09-30T14:47:37;4.82;;;2.22;;
69569;SDS011;56781;42.292;23.146;2022-09-30T14:50:10;5.43;;;2.00;;
69569;SDS011;56781;42.292;23.146;2022-09-30T14:52:45;5.07;;;2.05;;
69569;SDS011;56781;42.292;23.146;2022-09-30T14:57:53;4.35;;;2.20;;
69569;SDS011;56781;42.292;23.146;2022-09-30T15:00:46;4.25;;;2.10;;
69569;SDS011;56781;42.292;23.146;2022-09-30T15:03:23;4.40;;;2.10;;
69569;SDS011;56781;42.292;23.146;2022-09-30T15:05:52;4.78;;;2.22;;
69569;SDS011;56781;42.292;23.146;2022-09-30T15:08:20;3.53;;;1.95;;
69569;SDS011;56781;42.292;23.146;2022-09-30T15:10:48;6.07;;;2.30;;
69569;SDS011;56781;42.292;23.146;2022-09-30T15:13:18;4.63;;;2.20;;
69569;SDS011;56781;42.292;23.146;2022-09-30T15:15:47;5.20;;;2.30;;
69569;SDS011;56781;42.292;23.146;2022-09-30T15:21:03;6.47;;;2.50;;
69569;SDS011;56781;42.292;23.146;2022-09-30T15:23:39;5.93;;;2.60;;
69569;SDS011;56781;42.292;23.146;2022-09-30T15:26:09;5.65;;;2.50;;
69569;SDS011;56781;42.292;23.146;2022-09-30T15:28:37;6.47;;;2.63;;
69569;SDS011;56781;42.292;23.146;2022-09-30T15:31:05;3.45;;;2.15;;
69569;SDS011;56781;42.292;23.146;2022-09-30T15:33:39;5.18;;;2.55;;
69569;SDS011;56781;42.292;23.146;2022-09-30T15:36:07;4.93;;;2.47;;
69569;SDS011;56781;42.292;23.146;2022-09-30T15:38:47;4.93;;;2.67;;
69569;SDS011;56781;42.292;23.146;2022-09-30T15:41:17;7.55;;;3.25;;
69569;SDS011;56781;42.292;23.146;2022-09-30T15:43:47;18.33;;;8.95;;
69569;SDS011;56781;42.292;23.146;2022-09-30T15:48:48;11.25;;;5.43;;
69569;SDS011;56781;42.292;23.146;2022-09-30T15:51:23;7.32;;;3.83;;
69569;SDS011;56781;42.292;23.146;2022-09-30T15:56:52;8.00;;;3.38;;
69569;SDS011;56781;42.292;23.146;2022-09-30T15:59:19;5.65;;;3.30;;
69569;SDS011;56781;42.292;23.146;2022-09-30T16:01:48;12.15;;;5.50;;
69569;SDS011;56781;42.292;23.146;2022-09-30T16:06:52;15.27;;;5.97;;
69569;SDS011;56781;42.292;23.146;2022-09-30T16:09:32;9.10;;;5.75;;
69569;SDS011;56781;42.292;23.146;2022-09-30T16:12:08;9.90;;;4.95;;
69569;SDS011;56781;42.292;23.146;2022-09-30T16:14:44;7.82;;;4.78;;
69569;SDS011;56781;42.292;23.146;2022-09-30T16:17:22;7.70;;;4.47;;
69569;SDS011;56781;42.292;23.146;2022-09-30T16:19:52;8.85;;;4.50;;
69569;SDS011;56781;42.292;23.146;2022-09-30T16:25:18;7.15;;;3.90;;
69569;SDS011;56781;42.292;23.146;2022-09-30T16:27:46;4.70;;;3.08;;
69569;SDS011;56781;42.292;23.146;2022-09-30T16:30:23;8.23;;;3.70;;
69569;SDS011;56781;42.292;23.146;2022-09-30T16:32:52;7.63;;;3.50;;
69569;SDS011;56781;42.292;23.146;2022-09-30T16:35:24;7.75;;;3.70;;
69569;SDS011;56781;42.292;23.146;2022-09-30T16:38:03;7.45;;;4.00;;
69569;SDS011;56781;42.292;23.146;2022-09-30T16:40:32;5.85;;;3.65;;
69569;SDS011;56781;42.292;23.146;2022-09-30T16:43:01;7.72;;;3.92;;
69569;SDS011;56781;42.292;23.146;2022-09-30T16:45:33;10.98;;;4.32;;
69569;SDS011;56781;42.292;23.146;2022-09-30T16:48:01;6.45;;;3.97;;
69569;SDS011;56781;42.292;23.146;2022-09-30T16:50:38;8.90;;;3.75;;
69569;SDS011;56781;42.292;23.146;2022-09-30T16:53:09;9.23;;;4.20;;
69569;SDS011;56781;42.292;23.146;2022-09-30T16:55:36;7.45;;;4.22;;
69569;SDS011;56781;42.292;23.146;2022-09-30T16:58:13;7.95;;;4.07;;
69569;SDS011;56781;42.292;23.146;2022-09-30T17:00:43;5.90;;;3.92;;
69569;SDS011;56781;42.292;23.146;2022-09-30T17:03:13;6.97;;;4.30;;
69569;SDS011;56781;42.292;23.146;2022-09-30T17:05:42;9.15;;;4.15;;
69569;SDS011;56781;42.292;23.146;2022-09-30T17:08:12;7.28;;;4.10;;
69569;SDS011;56781;42.292;23.146;2022-09-30T17:10:44;7.50;;;4.93;;
69569;SDS011;56781;42.292;23.146;2022-09-30T17:13:16;7.82;;;5.32;;
69569;SDS011;56781;42.292;23.146;2022-09-30T17:15:47;10.43;;;5.78;;
69569;SDS011;56781;42.292;23.146;2022-09-30T17:18:36;11.15;;;5.72;;
69569;SDS011;56781;42.292;23.146;2022-09-30T17:21:03;11.35;;;6.18;;
69569;SDS011;56781;42.292;23.146;2022-09-30T17:23:50;12.15;;;6.95;;
69569;SDS011;56781;42.292;23.146;2022-09-30T17:26:25;25.45;;;11.32;;
69569;SDS011;56781;42.292;23.146;2022-09-30T17:28:54;93.32;;;34.92;;
69569;SDS011;56781;42.292;23.146;2022-09-30T17:31:48;230.15;;;65.57;;
69569;SDS011;56781;42.292;23.146;2022-09-30T17:34:16;136.25;;;49.50;;
69569;SDS011;56781;42.292;23.146;2022-09-30T17:36:45;101.82;;;39.22;;
69569;SDS011;56781;42.292;23.146;2022-09-30T17:39:12;52.17;;;22.73;;
69569;SDS011;56781;42.292;23.146;2022-09-30T17:41:39;31.08;;;14.05;;
69569;SDS011;56781;42.292;23.146;2022-09-30T17:44:25;24.48;;;10.63;;
69569;SDS011;56781;42.292;23.146;2022-09-30T17:46:56;16.85;;;7.50;;
69569;SDS011;56781;42.292;23.146;2022-09-30T17:49:32;13.75;;;7.30;;
69569;SDS011;56781;42.292;23.146;2022-09-30T17:52:02;18.27;;;7.55;;
69569;SDS011;56781;42.292;23.146;2022-09-30T17:54:40;16.73;;;7.50;;
69569;SDS011;56781;42.292;23.146;2022-09-30T17:57:07;14.75;;;7.72;;
69569;SDS011;56781;42.292;23.146;2022-09-30T17:59:36;15.82;;;7.57;;
69569;SDS011;56781;42.292;23.146;2022-09-30T18:02:03;15.85;;;7.18;;
69569;SDS011;56781;42.292;23.146;2022-09-30T18:04:30;12.40;;;6.88;;
69569;SDS011;56781;42.292;23.146;2022-09-30T18:07:00;17.20;;;7.97;;
69569;SDS011;56781;42.292;23.146;2022-09-30T18:09:28;15.18;;;6.88;;
69569;SDS011;56781;42.292;23.146;2022-09-30T18:11:55;12.30;;;6.40;;
69569;SDS011;56781;42.292;23.146;2022-09-30T18:14:24;12.45;;;6.53;;
69569;SDS011;56781;42.292;23.146;2022-09-30T18:16:54;12.20;;;5.75;;
69569;SDS011;56781;42.292;23.146;2022-09-30T18:19:35;11.40;;;6.05;;
69569;SDS011;56781;42.292;23.146;2022-09-30T18:22:01;10.32;;;5.95;;
69569;SDS011;56781;42.292;23.146;2022-09-30T18:24:28;11.93;;;6.13;;
69569;SDS011;56781;42.292;23.146;2022-09-30T18:27:14;9.45;;;6.05;;
69569;SDS011;56781;42.292;23.146;2022-09-30T18:29:42;12.10;;;6.18;;
69569;SDS011;56781;42.292;23.146;2022-09-30T18:32:10;10.25;;;6.25;;
69569;SDS011;56781;42.292;23.146;2022-09-30T18:34:40;11.02;;;6.03;;
69569;SDS011;56781;42.292;23.146;2022-09-30T18:37:38;10.85;;;5.93;;
69569;SDS011;56781;42.292;23.146;2022-09-30T18:40:08;12.18;;;6.10;;
69569;SDS011;56781;42.292;23.146;2022-09-30T18:42:38;9.90;;;5.65;;
69569;SDS011;56781;42.292;23.146;2022-09-30T18:45:29;11.70;;;6.00;;